Time;durP1;ratioP1;P1;durP2;ratioP2;P2;SDS_P1;SDS_P2;PMS_P1;PMS_P2;Temp;Humidity;BMP_temperature;BMP_pressure;BME280_temperature;BME280_humidity;BME280_pressure;Samples;Min_cycle;Max_cycle;Signal;HPM_P1;HPM_P2
2021/03/30 00:00:21;;;;;;;2.22;0.93;;;;;;;18.44;53.36;103079.59;6250413;22;20008;-81
2021/03/30 00:03:06;;;;;;;2.03;1.20;;;;;;;18.43;53.28;103078.72;6298563;22;20011;-80
2021/03/30 00:05:33;;;;;;;1.58;0.90;;;;;;;18.40;53.25;103076.06;6279436;22;20030;-81
2021/03/30 00:08:02;;;;;;;2.17;1.10;;;;;;;18.41;53.44;103067.38;6302796;22;19983;-81
2021/03/30 00:10:48;;;;;;;1.40;0.90;;;;;;;18.40;53.09;103072.53;6303533;22;20131;-80
2021/03/30 00:13:15;;;;;;;2.45;0.90;;;;;;;18.40;53.16;103077.75;6210206;23;20011;-79
2021/03/30 00:15:42;;;;;;;2.47;0.88;;;;;;;18.40;53.32;103081.25;6210648;23;20009;-80
2021/03/30 00:18:26;;;;;;;1.85;0.85;;;;;;;18.42;53.13;103086.50;6208357;23;20040;-80
2021/03/30 00:20:59;;;;;;;1.85;0.90;;;;;;;18.40;53.18;103086.47;6207578;23;20028;-80
2021/03/30 00:23:34;;;;;;;2.22;1.00;;;;;;;18.39;53.29;103081.22;6213333;22;20017;-81
2021/03/30 00:26:11;;;;;;;1.30;0.90;;;;;;;18.38;53.18;103082.94;6214244;23;20024;-80
2021/03/30 00:28:38;;;;;;;2.17;0.98;;;;;;;18.39;53.35;103083.81;6240932;23;19987;-80
2021/03/30 00:31:05;;;;;;;1.88;0.80;;;;;;;18.38;53.20;103085.56;6188439;23;20009;-80
2021/03/30 00:33:32;;;;;;;1.42;0.85;;;;;;;18.38;53.10;103084.66;6240228;23;20012;-80
2021/03/30 00:36:00;;;;;;;1.50;0.80;;;;;;;18.38;53.15;103082.03;6189741;23;20064;-81
2021/03/30 00:38:29;;;;;;;1.38;0.77;;;;;;;18.36;53.10;103084.66;6214838;23;19989;-81
2021/03/30 00:41:07;;;;;;;1.50;0.88;;;;;;;18.37;53.38;103091.59;6213269;22;20029;-80
2021/03/30 00:43:57;;;;;;;1.48;0.95;;;;;;;18.39;53.23;103095.13;6194313;23;20016;-80
2021/03/30 00:46:27;;;;;;;1.08;0.70;;;;;;;18.36;53.08;103079.44;6181461;23;20048;-80
2021/03/30 00:48:53;;;;;;;2.10;1.00;;;;;;;18.36;53.09;103075.94;6185322;23;20013;-80
2021/03/30 00:51:19;;;;;;;2.08;0.90;;;;;;;18.36;53.02;103078.56;6157847;23;20011;-80
2021/03/30 00:54:12;;;;;;;1.10;0.70;;;;;;;18.37;53.20;103078.56;6207702;23;20028;-80
2021/03/30 00:56:39;;;;;;;1.63;0.80;;;;;;;18.35;53.05;103088.06;6183546;23;20013;-79
2021/03/30 00:59:14;;;;;;;1.55;0.93;;;;;;;18.35;53.24;103080.25;6134232;23;20035;-80
2021/03/30 01:01:41;;;;;;;1.85;0.90;;;;;;;18.34;53.33;103072.44;6208544;23;20009;-81
2021/03/30 01:04:10;;;;;;;3.55;1.00;;;;;;;18.34;53.17;103075.91;6209202;23;20005;-80
2021/03/30 01:09:46;;;;;;;1.42;0.77;;;;;;;18.35;53.37;103076.78;6209737;23;20060;-80
2021/03/30 01:12:39;;;;;;;2.97;0.75;;;;;;;18.34;53.34;103081.13;6183579;23;20001;-81
2021/03/30 01:15:40;;;;;;;1.93;0.90;;;;;;;18.33;53.17;103084.56;6182729;23;20057;-80
2021/03/30 01:18:14;;;;;;;1.23;0.73;;;;;;;18.33;53.12;103083.69;6206331;23;20004;-80
2021/03/30 01:21:30;;;;;;;1.55;0.88;;;;;;;18.33;53.15;103075.84;6282786;22;20038;-80
2021/03/30 01:24:30;;;;;;;1.45;0.82;;;;;;;18.31;53.44;103078.41;6270884;22;20007;-80
2021/03/30 01:27:19;;;;;;;1.20;0.75;;;;;;;18.30;53.33;103074.94;6296911;22;20000;-80
2021/03/30 01:30:00;;;;;;;1.58;0.77;;;;;;;18.29;53.17;103070.59;6264709;22;20039;-80
2021/03/30 01:32:39;;;;;;;1.40;0.70;;;;;;;18.30;53.41;103071.47;6295971;22;20000;-80
2021/03/30 01:35:16;;;;;;;1.30;0.77;;;;;;;18.30;53.11;103072.34;6265329;22;20016;-80
2021/03/30 01:37:46;;;;;;;1.60;0.90;;;;;;;18.28;53.13;103062.72;6270267;22;20035;-80
2021/03/30 01:40:22;;;;;;;1.13;0.80;;;;;;;18.30;53.37;103068.84;6243160;22;20034;-80
2021/03/30 01:42:49;;;;;;;1.42;0.80;;;;;;;18.28;53.21;103068.81;6246038;22;20004;-80
2021/03/30 01:45:21;;;;;;;1.83;0.80;;;;;;;18.27;53.26;103063.59;6245466;22;20023;-80
2021/03/30 01:47:49;;;;;;;1.70;0.80;;;;;;;18.26;53.38;103061.81;6297348;22;20032;-80
2021/03/30 01:52:41;;;;;;;2.35;0.60;;;;;;;18.27;53.12;103066.19;6295443;22;20046;-80
2021/03/30 01:55:28;;;;;;;2.92;0.90;;;;;;;18.28;53.28;103067.94;6271432;22;20011;-80
2021/03/30 01:58:04;;;;;;;1.23;0.70;;;;;;;18.27;53.23;103060.97;6298052;22;20011;-80
2021/03/30 02:00:38;;;;;;;1.83;0.80;;;;;;;18.25;53.17;103065.28;6298063;22;20003;-80
2021/03/30 02:03:26;;;;;;;2.35;1.00;;;;;;;18.25;53.06;103071.34;6298246;22;19999;-80
2021/03/30 02:06:34;;;;;;;1.52;0.70;;;;;;;18.25;53.34;103063.53;6299017;22;20044;-80
2021/03/30 02:09:03;;;;;;;1.08;0.80;;;;;;;18.25;53.29;103073.09;6272093;22;20011;-80
2021/03/30 02:12:00;;;;;;;1.15;0.70;;;;;;;18.24;53.04;103064.38;6271366;22;20422;-80
2021/03/30 02:14:36;;;;;;;1.33;0.77;;;;;;;18.24;53.43;103053.94;6292956;22;19997;-80
2021/03/30 02:17:41;;;;;;;1.90;0.98;;;;;;;18.23;53.33;103059.16;6265661;23;20004;-80
2021/03/30 02:20:32;;;;;;;2.38;0.90;;;;;;;18.23;53.27;103057.41;6261345;23;20011;-80
2021/03/30 02:23:33;;;;;;;1.15;0.63;;;;;;;18.22;53.09;103055.63;6268664;23;20012;-81
2021/03/30 02:26:02;;;;;;;2.13;0.90;;;;;;;18.20;53.15;103052.09;6267616;23;20061;-81
2021/03/30 02:28:44;;;;;;;1.35;0.73;;;;;;;18.20;53.24;103056.44;6240018;23;20012;-80
2021/03/30 02:31:15;;;;;;;1.42;0.80;;;;;;;18.19;53.37;103041.66;6268480;23;20000;-80
2021/03/30 02:34:20;;;;;;;1.73;0.70;;;;;;;18.21;53.09;103048.69;6245887;22;20004;-80
2021/03/30 02:36:56;;;;;;;2.78;1.13;;;;;;;18.19;53.20;103046.88;6273197;22;19996;-80
2021/03/30 02:39:35;;;;;;;2.03;0.80;;;;;;;18.19;53.34;103046.88;6247771;22;19984;-80
2021/03/30 02:42:09;;;;;;;1.50;0.90;;;;;;;18.19;53.22;103050.38;6271556;23;20001;-79
2021/03/30 02:44:40;;;;;;;2.35;1.00;;;;;;;18.19;53.27;103055.56;6267047;23;20004;-80
2021/03/30 02:47:10;;;;;;;1.50;0.80;;;;;;;18.17;53.19;103045.97;6270615;23;20007;-80
2021/03/30 02:50:01;;;;;;;1.23;0.65;;;;;;;18.19;53.35;103046.88;6243404;23;20015;-80
2021/03/30 02:52:36;;;;;;;2.08;0.90;;;;;;;18.16;53.30;103047.69;6220039;23;20094;-80
2021/03/30 02:55:04;;;;;;;1.98;0.88;;;;;;;18.17;53.40;103049.44;6270158;23;19996;-80
2021/03/30 02:57:33;;;;;;;2.58;0.70;;;;;;;18.16;53.31;103044.19;6269899;23;20020;-80
2021/03/30 03:02:55;;;;;;;1.63;0.82;;;;;;;18.15;53.20;103061.56;6247559;23;20027;-80
2021/03/30 03:05:22;;;;;;;1.60;0.80;;;;;;;18.16;53.37;103065.94;6268804;23;20011;-80
2021/03/30 03:07:50;;;;;;;1.42;0.80;;;;;;;18.14;53.32;103056.31;6207076;23;20128;-80
2021/03/30 03:10:20;;;;;;;1.13;0.80;;;;;;;18.14;53.19;103059.81;6203384;23;20476;-80
2021/03/30 03:12:52;;;;;;;1.38;0.70;;;;;;;18.15;53.29;103071.09;6207340;23;20001;-80
2021/03/30 03:15:26;;;;;;;2.28;0.90;;;;;;;18.13;53.28;103065.84;6183116;23;20009;-80
2021/03/30 03:17:54;;;;;;;1.10;0.63;;;;;;;18.14;53.33;103067.63;6208270;23;20009;-80
2021/03/30 03:20:24;;;;;;;2.92;0.90;;;;;;;18.14;53.22;103064.13;6157529;23;20013;-80
2021/03/30 03:22:52;;;;;;;2.03;0.80;;;;;;;18.13;53.32;103062.38;6206204;23;20075;-80
2021/03/30 03:25:19;;;;;;;2.47;1.00;;;;;;;18.12;53.37;103060.59;6206048;23;20028;-79
2021/03/30 03:28:22;;;;;;;1.55;0.80;;;;;;;18.13;53.35;103073.66;6179733;23;20016;-80
2021/03/30 03:30:58;;;;;;;2.00;0.80;;;;;;;18.12;53.32;103076.22;6203449;23;20012;-80
2021/03/30 03:33:28;;;;;;;1.45;0.80;;;;;;;18.11;53.24;103071.88;6204559;23;20068;-81
2021/03/30 03:36:35;;;;;;;2.03;0.90;;;;;;;18.12;53.20;103081.44;6180364;23;19989;-80
2021/03/30 03:39:01;;;;;;;0.98;0.80;;;;;;;18.10;53.48;103081.44;6205115;23;20012;-80
2021/03/30 03:41:30;;;;;;;1.25;0.85;;;;;;;18.08;53.34;103075.28;6203641;23;20005;-80
2021/03/30 03:43:57;;;;;;;1.42;0.88;;;;;;;18.08;53.16;103075.28;6180591;23;20008;-80
2021/03/30 03:46:29;;;;;;;1.55;0.90;;;;;;;18.09;53.24;103082.25;6258264;22;20051;-80
2021/03/30 03:48:57;;;;;;;1.23;0.68;;;;;;;18.08;53.20;103077.91;6259927;22;20021;-80
2021/03/30 03:51:26;;;;;;;1.58;0.90;;;;;;;18.10;53.14;103089.25;6238250;23;20068;-80
2021/03/30 03:54:16;;;;;;;1.88;0.90;;;;;;;18.09;53.13;103084.84;6237520;23;20012;-79
2021/03/30 03:57:04;;;;;;;1.23;0.90;;;;;;;18.08;53.01;103086.59;6240342;23;20019;-80
2021/03/30 03:59:49;;;;;;;1.90;0.90;;;;;;;18.09;53.11;103082.25;6236701;23;20031;-80
2021/03/30 04:02:34;;;;;;;1.75;0.80;;;;;;;18.07;53.22;103089.16;6240278;23;19988;-79
2021/03/30 04:05:32;;;;;;;2.22;0.90;;;;;;;18.07;53.19;103087.44;6238277;23;20008;-80
2021/03/30 04:08:40;;;;;;;2.00;0.90;;;;;;;18.07;53.03;103086.53;6209091;23;20073;-79
2021/03/30 04:11:20;;;;;;;1.10;0.80;;;;;;;18.06;53.24;103088.28;6207009;23;20028;-80
2021/03/30 04:14:07;;;;;;;1.55;1.00;;;;;;;18.06;53.13;103096.09;6184053;23;20004;-80
2021/03/30 04:16:35;;;;;;;2.10;0.88;;;;;;;18.06;53.18;103105.63;6095730;23;20362;-80
2021/03/30 04:19:21;;;;;;;2.03;0.98;;;;;;;18.03;53.07;103098.63;6119068;23;20082;-79
2021/03/30 04:24:29;;;;;;;1.80;0.90;;;;;;;18.05;53.05;103109.97;6271483;23;20020;-79
2021/03/30 04:26:56;;;;;;;2.40;0.82;;;;;;;18.04;53.26;103108.19;6241594;23;20043;-80
2021/03/30 04:29:23;;;;;;;1.60;0.80;;;;;;;18.04;53.21;103107.31;6243138;23;20000;-79
2021/03/30 04:31:58;;;;;;;2.28;0.90;;;;;;;18.03;53.11;103106.44;6207785;23;20013;-81
2021/03/30 04:34:52;;;;;;;1.50;1.08;;;;;;;18.02;53.13;103098.59;6272465;22;20011;-80
2021/03/30 04:37:26;;;;;;;1.40;0.77;;;;;;;18.02;53.23;103102.06;6301836;22;19988;-80
2021/03/30 04:40:15;;;;;;;1.63;0.80;;;;;;;18.02;53.28;103099.47;6302369;22;20012;-80
2021/03/30 04:42:43;;;;;;;1.00;0.60;;;;;;;18.00;53.13;103097.66;6250566;22;20015;-81
2021/03/30 04:45:58;;;;;;;1.70;0.90;;;;;;;18.03;53.07;103097.72;6247585;23;20058;-80
2021/03/30 04:49:07;;;;;;;1.67;0.90;;;;;;;18.03;53.16;103108.16;6270031;23;20101;-80
2021/03/30 04:52:10;;;;;;;1.73;0.82;;;;;;;18.01;53.19;103109.88;6245621;23;20019;-80
2021/03/30 04:54:49;;;;;;;2.15;0.98;;;;;;;18.01;53.11;103105.53;6271474;23;20015;-80
2021/03/30 04:57:17;;;;;;;1.80;0.90;;;;;;;17.99;52.97;103114.16;6237637;23;20051;-80
2021/03/30 04:59:43;;;;;;;1.52;0.77;;;;;;;18.02;53.00;103119.44;6238758;23;20008;-80
2021/03/30 05:02:09;;;;;;;1.38;0.80;;;;;;;17.99;53.05;103111.56;6265088;23;20008;-80
2021/03/30 05:04:35;;;;;;;3.45;0.98;;;;;;;17.98;52.85;103114.97;6240070;23;20000;-80
2021/03/30 05:07:01;;;;;;;4.55;0.90;;;;;;;17.98;53.05;103113.25;6248247;22;20012;-81
2021/03/30 05:09:32;;;;;;;2.05;1.13;;;;;;;17.99;53.11;103119.38;6272971;22;20012;-80
2021/03/30 05:12:19;;;;;;;3.33;1.63;;;;;;;18.03;53.17;103123.78;6274718;22;19992;-80
2021/03/30 05:15:34;;;;;;;5.53;2.13;;;;;;;18.06;53.14;103126.50;6242715;23;20016;-80
2021/03/30 05:18:15;;;;;;;9.55;1.95;;;;;;;18.05;53.50;103119.50;6241251;23;19984;-80
2021/03/30 05:21:18;;;;;;;5.13;1.75;;;;;;;18.09;53.31;103131.75;6241693;23;20005;-79
2021/03/30 05:23:46;;;;;;;5.05;1.80;;;;;;;18.09;53.32;103130.06;6241099;23;20023;-81
2021/03/30 05:26:34;;;;;;;5.68;2.03;;;;;;;18.11;53.21;103135.28;6242802;23;20001;-81
2021/03/30 05:29:08;;;;;;;5.18;2.10;;;;;;;18.11;53.32;103130.06;6242530;23;20000;-82
2021/03/30 05:34:30;;;;;;;5.43;1.55;;;;;;;18.16;53.66;103133.69;6269354;22;19915;-80
2021/03/30 05:36:57;;;;;;;5.40;1.75;;;;;;;18.18;53.65;103129.41;6182945;23;20040;-80
2021/03/30 05:39:47;;;;;;;4.97;1.90;;;;;;;18.18;53.54;103124.19;6195159;22;20019;-81
2021/03/30 05:42:20;;;;;;;3.63;1.55;;;;;;;18.22;53.46;103141.63;6176608;23;20049;-82
2021/03/30 05:44:52;;;;;;;3.88;1.63;;;;;;;18.25;53.56;103139.13;6177640;23;20017;-80
2021/03/30 05:49:57;;;;;;;2.70;1.35;;;;;;;18.29;53.44;103135.75;6268689;23;20020;-80
2021/03/30 05:52:51;;;;;;;3.47;1.60;;;;;;;18.32;53.21;103137.53;6271449;22;20016;-81
2021/03/30 06:21:37;;;;;;;4.10;1.20;;;;;;;19.15;51.48;103144.63;6273375;22;20083;-88
2021/03/30 06:27:29;;;;;;;3.17;1.33;;;;;;;20.43;48.65;103152.19;6279587;22;20022;-93
2021/03/30 06:29:57;;;;;;;2.67;1.33;;;;;;;20.85;47.22;103149.31;6250523;22;20397;-89
2021/03/30 06:32:24;;;;;;;3.58;1.33;;;;;;;21.09;46.14;103147.88;6279188;22;19999;-89
2021/03/30 06:34:55;;;;;;;2.28;1.40;;;;;;;21.18;46.09;103142.75;6253011;22;20056;-91
2021/03/30 06:37:38;;;;;;;2.35;1.40;;;;;;;21.21;46.04;103144.50;6278186;22;20489;-90
2021/03/30 06:40:09;;;;;;;2.33;1.30;;;;;;;21.00;46.19;103153.88;6277316;22;19999;-87
2021/03/30 06:42:46;;;;;;;2.58;1.20;;;;;;;20.92;46.67;103150.28;6249748;22;20007;-90
2021/03/30 06:45:16;;;;;;;2.22;1.15;;;;;;;20.70;47.04;103149.97;6250688;22;20058;-90
2021/03/30 06:47:43;;;;;;;1.77;1.13;;;;;;;20.41;47.54;103164.34;6251716;22;20090;-91
2021/03/30 06:50:24;;;;;;;3.05;1.30;;;;;;;20.42;47.86;103156.50;6281557;22;20008;-89
2021/03/30 06:52:49;;;;;;;1.38;0.98;;;;;;;20.62;47.32;103169.94;6256275;22;20442;-91
2021/03/30 06:55:25;;;;;;;2.60;1.50;;;;;;;20.91;46.75;103159.88;6260946;22;20008;-94
2021/03/30 06:57:50;;;;;;;3.70;1.20;;;;;;;21.07;45.94;103154.81;6254700;22;20446;-92
2021/03/30 07:00:34;;;;;;;2.67;1.42;;;;;;;21.11;45.64;103167.09;6254221;22;20004;-92
2021/03/30 07:03:04;;;;;;;2.17;1.33;;;;;;;21.06;45.57;103164.44;6281848;22;20083;-90
2021/03/30 07:05:36;;;;;;;1.60;1.20;;;;;;;21.02;45.73;103167.88;6256604;22;20004;-91
2021/03/30 07:08:07;;;;;;;2.20;1.40;;;;;;;21.17;45.41;103168.06;6260316;22;20023;-89
2021/03/30 07:10:35;;;;;;;2.58;1.38;;;;;;;21.29;45.13;103163.81;6252486;23;20008;-90
2021/03/30 07:13:00;;;;;;;2.78;1.38;;;;;;;21.32;44.87;103163.88;6221989;23;20047;-87
2021/03/30 07:15:27;;;;;;;2.35;1.42;;;;;;;21.55;44.54;103158.91;6225195;23;20416;-87
2021/03/30 07:18:16;;;;;;;2.63;1.30;;;;;;;21.52;44.22;103165.00;6199109;23;20012;-85
2021/03/30 07:20:43;;;;;;;2.30;1.50;;;;;;;21.48;44.19;103157.09;6255330;23;19996;-86
2021/03/30 07:23:12;;;;;;;2.10;1.33;;;;;;;21.64;43.87;103161.63;6224243;23;20340;-84
2021/03/30 07:25:49;;;;;;;3.28;1.35;;;;;;;21.85;43.42;103166.19;6255081;23;20000;-87
2021/03/30 07:28:21;;;;;;;2.40;1.55;;;;;;;21.97;43.08;103171.56;6254777;23;20012;-85
2021/03/30 07:30:53;;;;;;;2.00;1.25;;;;;;;21.90;42.91;103164.50;6235026;23;20434;-84
2021/03/30 07:33:36;;;;;;;2.13;1.30;;;;;;;22.06;42.70;103167.25;6262758;23;20380;-86
2021/03/30 07:36:03;;;;;;;2.22;1.50;;;;;;;22.34;42.32;103165.75;6266358;23;20011;-88
2021/03/30 07:38:39;;;;;;;2.03;1.30;;;;;;;22.58;41.45;103173.81;6236812;23;20008;-85
2021/03/30 07:41:05;;;;;;;2.92;1.45;;;;;;;22.60;41.56;103168.56;6260129;23;20424;-83
2021/03/30 07:43:32;;;;;;;3.13;1.40;;;;;;;22.62;41.29;103166.81;6199110;23;20007;-83
2021/03/30 07:46:02;;;;;;;1.95;1.30;;;;;;;22.56;41.14;103169.44;6249703;23;20038;-86
2021/03/30 07:48:30;;;;;;;1.67;1.08;;;;;;;22.73;41.22;103161.63;6250373;23;20043;-86
2021/03/30 07:51:02;;;;;;;1.80;1.25;;;;;;;22.91;40.74;103166.13;6224400;23;20040;-84
2021/03/30 07:53:50;;;;;;;3.10;1.30;;;;;;;23.03;40.46;103173.19;6246358;23;20004;-84
2021/03/30 07:56:21;;;;;;;2.55;1.58;;;;;;;23.07;40.36;103167.97;6246117;23;20000;-84
2021/03/30 07:58:47;;;;;;;2.15;1.30;;;;;;;23.09;39.95;103175.88;6220686;23;20347;-84
2021/03/30 08:01:14;;;;;;;1.88;1.13;;;;;;;22.77;40.73;103172.16;6223132;23;20008;-87
2021/03/30 08:03:43;;;;;;;1.90;1.25;;;;;;;21.76;43.11;103174.84;6222468;23;20027;-85
2021/03/30 08:06:20;;;;;;;1.40;1.10;;;;;;;22.35;42.14;103175.41;6198768;23;20497;-82
2021/03/30 08:08:57;;;;;;;3.08;1.40;;;;;;;22.55;41.50;103172.91;6248326;23;20087;-82
2021/03/30 08:11:41;;;;;;;2.35;1.20;;;;;;;22.51;41.64;103182.50;6221747;23;20352;-83
2021/03/30 08:14:09;;;;;;;2.05;1.35;;;;;;;22.55;41.26;103176.41;6222207;23;20016;-83
2021/03/30 08:16:37;;;;;;;2.35;1.48;;;;;;;22.51;41.25;103179.00;6223141;23;20004;-86
2021/03/30 08:19:11;;;;;;;2.03;1.40;;;;;;;22.43;41.72;103185.94;6222476;23;20015;-87
2021/03/30 08:22:01;;;;;;;2.20;1.30;;;;;;;22.42;41.73;103185.06;6221888;23;20008;-85
2021/03/30 08:24:47;;;;;;;2.00;1.10;;;;;;;22.35;41.71;103183.25;6222567;23;20031;-83
2021/03/30 08:27:30;;;;;;;2.13;1.33;;;;;;;22.09;42.57;103188.25;6230496;23;20004;-82
2021/03/30 08:29:56;;;;;;;2.78;1.20;;;;;;;21.92;42.68;103194.22;6223147;23;20008;-87
2021/03/30 08:32:22;;;;;;;2.13;1.48;;;;;;;21.82;43.31;103183.63;6222316;23;20062;-86
2021/03/30 08:34:48;;;;;;;2.67;1.45;;;;;;;21.65;43.56;103194.84;6195618;23;20012;-87
2021/03/30 08:37:14;;;;;;;2.78;1.27;;;;;;;21.44;44.04;103187.59;6220824;23;20009;-88
2021/03/30 08:39:42;;;;;;;2.53;1.10;;;;;;;21.32;44.51;103187.44;6222888;23;20042;-87
2021/03/30 08:42:09;;;;;;;2.20;1.40;;;;;;;21.17;44.94;103194.25;6197442;23;20004;-88
2021/03/30 08:44:48;;;;;;;2.00;1.30;;;;;;;21.05;45.21;103190.56;6222121;23;20007;-87
2021/03/30 08:47:27;;;;;;;2.25;1.30;;;;;;;20.95;45.61;103194.81;6221100;23;20015;-87
2021/03/30 08:50:20;;;;;;;2.00;1.30;;;;;;;20.85;45.70;103191.19;6222260;23;20024;-88
2021/03/30 08:52:46;;;;;;;2.88;1.30;;;;;;;20.76;45.98;103198.91;6248735;23;20026;-87
2021/03/30 08:55:12;;;;;;;2.05;1.20;;;;;;;20.66;46.26;103199.63;6223525;23;20058;-86
2021/03/30 08:57:45;;;;;;;3.10;1.48;;;;;;;20.63;46.49;103197.84;6197464;23;20016;-87
2021/03/30 09:00:14;;;;;;;1.48;1.20;;;;;;;20.55;46.70;103204.66;6221206;23;20036;-89
2021/03/30 09:02:40;;;;;;;2.63;1.38;;;;;;;20.53;46.86;103208.97;6254708;23;20424;-88
2021/03/30 09:05:17;;;;;;;2.33;1.13;;;;;;;20.45;46.89;103211.50;6224962;23;20008;-88
2021/03/30 09:07:47;;;;;;;1.70;1.10;;;;;;;20.37;47.35;103212.22;6195482;23;20090;-87
2021/03/30 09:10:14;;;;;;;1.38;1.02;;;;;;;20.32;47.39;103205.19;6221695;23;20431;-87
2021/03/30 09:12:40;;;;;;;1.80;1.40;;;;;;;20.27;47.41;103216.41;6198673;23;20054;-87
2021/03/30 09:15:11;;;;;;;2.50;1.40;;;;;;;20.21;47.83;103211.97;6199587;23;20008;-87
2021/03/30 09:17:58;;;;;;;2.30;1.42;;;;;;;20.18;47.78;103216.25;6249585;23;20004;-88
2021/03/30 09:20:30;;;;;;;1.88;1.30;;;;;;;20.13;47.70;103217.06;6248591;23;20004;-89
2021/03/30 09:22:59;;;;;;;1.58;1.10;;;;;;;20.10;48.14;103219.63;6223941;23;20155;-85
2021/03/30 09:27:56;;;;;;;2.67;1.30;;;;;;;20.07;48.07;103213.44;6249028;23;20008;-89
2021/03/30 09:30:23;;;;;;;3.35;1.27;;;;;;;20.05;48.17;103221.25;6197373;23;20062;-86
2021/03/30 09:32:54;;;;;;;1.90;1.20;;;;;;;20.01;48.27;103215.94;6223110;23;20662;-86
2021/03/30 09:35:25;;;;;;;1.98;1.23;;;;;;;19.97;48.44;103209.81;6251910;23;20451;-85
2021/03/30 09:38:00;;;;;;;1.88;1.13;;;;;;;19.94;48.49;103218.44;6224817;23;20062;-86
2021/03/30 09:40:41;;;;;;;1.63;1.10;;;;;;;19.90;48.63;103210.53;6229671;23;20376;-88
2021/03/30 09:43:11;;;;;;;2.17;1.30;;;;;;;19.85;48.88;103209.56;6200797;23;20008;-86
2021/03/30 09:45:38;;;;;;;1.88;1.40;;;;;;;19.83;48.88;103206.91;6255246;23;20000;-84
2021/03/30 09:48:07;;;;;;;2.03;1.30;;;;;;;19.81;49.17;103207.75;6226166;23;20056;-87
2021/03/30 09:50:33;;;;;;;1.92;1.30;;;;;;;19.81;48.90;103205.13;6229871;23;19996;-87
2021/03/30 09:53:22;;;;;;;2.45;1.50;;;;;;;19.79;48.88;103199.88;6208139;23;20004;-84
2021/03/30 09:55:48;;;;;;;5.15;2.38;;;;;;;19.79;48.27;103201.59;6246512;23;20008;-89
2021/03/30 10:07:43;;;;;;;4.15;2.40;;;;;;;19.65;47.50;103198.72;6253156;22;20042;-89
2021/03/30 10:30:17;;;;;;;5.03;2.30;;;;;;;19.57;47.09;103190.72;6295316;22;20035;-83
2021/03/30 10:32:53;;;;;;;4.75;2.75;;;;;;;19.55;47.15;103188.94;6276304;22;20023;-83
2021/03/30 11:02:45;;;;;;;5.40;2.67;;;;;;;19.50;47.54;103150.53;6296866;22;20050;-89
2021/03/30 11:17:49;;;;;;;4.75;2.20;;;;;;;19.52;47.50;103154.06;6253916;22;20011;-83
2021/03/30 11:25:57;;;;;;;4.80;2.17;;;;;;;19.50;47.67;103137.47;6265402;22;20134;-83
2021/03/30 11:58:49;;;;;;;3.35;1.95;;;;;;;19.61;48.00;103121.16;6201263;23;20472;-85
2021/03/30 12:04:24;;;;;;;3.85;1.90;;;;;;;19.62;47.90;103112.44;6291037;22;20024;-84
2021/03/30 12:07:06;;;;;;;3.97;1.63;;;;;;;19.60;47.92;103111.53;6269720;22;20020;-84
2021/03/30 12:09:32;;;;;;;3.90;2.00;;;;;;;19.59;48.04;103101.94;6218643;22;20014;-85
2021/03/30 12:11:59;;;;;;;2.90;1.92;;;;;;;19.59;47.91;103101.94;6263946;22;20390;-84
2021/03/30 12:18:07;;;;;;;4.30;2.30;;;;;;;19.60;47.84;103095.84;6297407;22;20023;-84
2021/03/30 12:23:56;;;;;;;3.05;2.30;;;;;;;19.61;47.54;103082.84;6296926;22;20374;-85
2021/03/30 12:30:20;;;;;;;3.88;2.22;;;;;;;19.61;47.58;103075.00;6296916;22;20022;-83
2021/03/30 12:35:47;;;;;;;2.85;2.10;;;;;;;19.64;47.39;103074.16;6164107;23;20174;-83
2021/03/30 12:48:34;;;;;;;2.60;1.80;;;;;;;19.65;47.57;103063.75;6291741;22;20079;-84
2021/03/30 12:50:59;;;;;;;2.67;2.13;;;;;;;19.67;47.74;103062.06;4641157;23;37162209;-86
2021/03/30 13:00:26;;;;;;;3.38;2.13;;;;;;;19.69;47.94;103063.00;6294359;22;20026;-83
2021/03/30 13:02:52;;;;;;;3.38;2.22;;;;;;;19.71;48.08;103061.28;6268593;22;20012;-83
2021/03/30 13:05:17;;;;;;;2.97;2.15;;;;;;;19.70;48.11;103051.69;6243374;22;20058;-83
2021/03/30 13:07:43;;;;;;;4.28;2.25;;;;;;;19.72;48.03;103047.34;6291142;22;20328;-82
2021/03/30 13:10:16;;;;;;;3.45;2.10;;;;;;;19.71;48.18;103044.75;6295080;22;20027;-85
2021/03/30 13:12:43;;;;;;;3.53;2.40;;;;;;;19.72;48.38;103049.09;6292732;22;20296;-83
2021/03/30 13:15:17;;;;;;;3.35;2.28;;;;;;;19.72;48.26;103038.66;6272643;22;20063;-82
2021/03/30 13:17:45;;;;;;;2.80;2.10;;;;;;;19.73;48.34;103035.19;6298977;22;20026;-83
2021/03/30 13:20:13;;;;;;;4.43;2.47;;;;;;;19.76;48.18;103034.38;6248013;22;20033;-82
2021/03/30 13:22:46;;;;;;;3.17;2.38;;;;;;;19.74;48.30;103034.34;6273998;22;20008;-83
2021/03/30 13:25:32;;;;;;;4.68;2.50;;;;;;;19.75;48.28;103038.72;6302316;22;20003;-82
2021/03/30 13:28:21;;;;;;;4.18;2.50;;;;;;;19.74;48.03;103036.94;6300024;22;20000;-84
2021/03/30 13:30:50;;;;;;;4.13;2.58;;;;;;;19.75;48.13;103027.38;6272822;22;20000;-87
2021/03/30 13:33:21;;;;;;;4.90;2.72;;;;;;;19.77;48.01;103030.88;6274974;22;20004;-82
2021/03/30 13:35:48;;;;;;;4.78;2.55;;;;;;;19.75;48.09;103017.81;6298894;22;20031;-86
2021/03/30 13:38:55;;;;;;;3.35;2.25;;;;;;;19.78;48.28;103024.81;6277984;22;19992;-81
2021/03/30 13:41:22;;;;;;;3.40;2.28;;;;;;;19.78;48.31;103012.63;6266425;22;20063;-81
2021/03/30 13:43:55;;;;;;;6.43;2.30;;;;;;;19.78;48.27;103015.25;6239875;23;20007;-81
2021/03/30 13:46:23;;;;;;;4.50;2.80;;;;;;;19.78;48.06;103004.78;6233124;23;20039;-81
2021/03/30 13:49:09;;;;;;;3.83;2.47;;;;;;;19.77;48.12;103000.41;6231232;23;20011;-82
2021/03/30 13:51:39;;;;;;;3.63;2.50;;;;;;;19.79;48.10;102992.59;6236462;23;20052;-81
2021/03/30 13:54:06;;;;;;;3.63;2.55;;;;;;;19.80;48.07;103000.47;6238497;23;20017;-83
2021/03/30 13:57:11;;;;;;;4.25;2.85;;;;;;;19.80;48.12;102997.84;6238543;23;20009;-82
2021/03/30 13:59:40;;;;;;;3.65;2.60;;;;;;;19.80;47.90;102989.16;6239948;23;20019;-88
2021/03/30 14:02:05;;;;;;;4.68;2.88;;;;;;;19.82;48.16;102988.31;6240990;23;20024;-83
2021/03/30 14:04:31;;;;;;;6.10;2.55;;;;;;;19.81;48.05;102985.66;6241579;22;20012;-82
2021/03/30 14:06:59;;;;;;;4.95;2.60;;;;;;;19.81;47.95;102983.06;6239689;23;19985;-84
2021/03/30 14:09:25;;;;;;;3.83;2.50;;;;;;;19.81;47.81;102976.09;6256655;22;20023;-88
2021/03/30 14:11:54;;;;;;;3.72;3.00;;;;;;;19.83;47.73;102978.72;6239726;22;20038;-85
2021/03/30 14:14:23;;;;;;;3.33;2.33;;;;;;;19.82;47.85;102970.03;6265129;22;20018;-84
2021/03/30 14:17:08;;;;;;;4.07;2.42;;;;;;;19.83;47.97;102963.94;6266233;22;20004;-80
2021/03/30 14:19:56;;;;;;;3.55;2.45;;;;;;;19.84;47.67;102962.22;6244608;22;20094;-82
2021/03/30 14:22:32;;;;;;;5.03;2.90;;;;;;;19.86;47.78;102965.69;6293231;22;20056;-88
2021/03/30 14:25:32;;;;;;;4.18;2.58;;;;;;;19.83;47.65;102958.69;6264753;22;20312;-83
2021/03/30 14:27:58;;;;;;;5.68;3.17;;;;;;;19.86;48.01;102950.94;6264269;22;20063;-84
2021/03/30 14:30:24;;;;;;;4.35;2.53;;;;;;;19.87;47.70;102952.66;6288468;22;20090;-82
2021/03/30 14:32:49;;;;;;;4.50;2.75;;;;;;;19.85;47.76;102940.44;6262465;22;20011;-82
2021/03/30 14:35:15;;;;;;;3.95;2.78;;;;;;;19.88;47.85;102950.94;6290904;22;20014;-82
2021/03/30 14:37:42;;;;;;;5.45;2.92;;;;;;;19.87;47.92;102942.22;6263305;22;20012;-86
2021/03/30 14:42:59;;;;;;;6.25;3.03;;;;;;;19.91;47.69;102935.31;6288701;22;20011;-88
2021/03/30 14:45:47;;;;;;;4.70;3.10;;;;;;;19.91;47.67;102933.56;6290581;22;20427;-82
2021/03/30 14:53:49;;;;;;;6.28;3.22;;;;;;;19.93;47.65;102920.53;6269428;22;20016;-85
2021/03/30 14:56:33;;;;;;;4.88;3.00;;;;;;;19.92;47.71;102914.44;6292456;22;20053;-84
2021/03/30 15:04:50;;;;;;;5.57;3.20;;;;;;;19.96;47.69;102914.47;6292327;22;20014;-88
2021/03/30 15:07:16;;;;;;;4.20;3.05;;;;;;;19.93;47.66;102903.13;6289956;22;20112;-84
2021/03/30 15:09:42;;;;;;;5.95;3.70;;;;;;;19.97;47.77;102910.97;6290021;22;20020;-84
2021/03/30 15:12:10;;;;;;;4.70;3.10;;;;;;;19.96;47.79;102904.88;6261979;22;20344;-81
2021/03/30 15:14:37;;;;;;;4.68;3.55;;;;;;;19.96;47.59;102904.00;6263803;22;20379;-82
2021/03/30 15:17:04;;;;;;;5.85;3.67;;;;;;;19.98;47.70;102902.31;6289615;22;20003;-85
2021/03/30 15:19:30;;;;;;;5.57;3.60;;;;;;;19.96;47.84;102894.44;6260859;22;20011;-86
2021/03/30 15:21:55;;;;;;;4.68;3.40;;;;;;;19.99;47.86;102904.03;6291290;22;19996;-83